sensor_id;sensor_type;location;lat;lon;timestamp;P1;durP1;ratioP1;P2;durP2;ratioP2
42904;SDS011;28550;51.228;4.528;2024-03-02T12:22:14;2.85;;;1.10;;
42904;SDS011;28550;51.228;4.528;2024-03-02T12:24:50;4.57;;;1.00;;
42904;SDS011;28550;51.228;4.528;2024-03-02T12:27:17;4.28;;;0.90;;
42904;SDS011;28550;51.228;4.528;2024-03-02T12:32:47;2.47;;;0.82;;
42904;SDS011;28550;51.228;4.528;2024-03-02T12:35:14;5.72;;;1.02;;
42904;SDS011;28550;51.228;4.528;2024-03-02T12:38:27;1.90;;;1.23;;
42904;SDS011;28550;51.228;4.528;2024-03-02T12:41:07;3.08;;;0.93;;
42904;SDS011;28550;51.228;4.528;2024-03-02T12:43:39;4.53;;;1.00;;
42904;SDS011;28550;51.228;4.528;2024-03-02T12:46:19;3.70;;;1.13;;
42904;SDS011;28550;51.228;4.528;2024-03-02T12:48:50;4.15;;;1.05;;
42904;SDS011;28550;51.228;4.528;2024-03-02T12:51:26;2.83;;;1.20;;
42904;SDS011;28550;51.228;4.528;2024-03-02T12:54:27;2.88;;;1.13;;
42904;SDS011;28550;51.228;4.528;2024-03-02T12:59:56;4.15;;;1.08;;
42904;SDS011;28550;51.228;4.528;2024-03-02T13:02:39;5.35;;;1.10;;
42904;SDS011;28550;51.228;4.528;2024-03-02T13:05:07;6.95;;;1.20;;
42904;SDS011;28550;51.228;4.528;2024-03-02T13:08:15;3.85;;;1.30;;
42904;SDS011;28550;51.228;4.528;2024-03-02T13:11:28;4.95;;;1.00;;
42904;SDS011;28550;51.228;4.528;2024-03-02T13:14:09;4.75;;;1.38;;
42904;SDS011;28550;51.228;4.528;2024-03-02T13:16:57;2.67;;;0.95;;
42904;SDS011;28550;51.228;4.528;2024-03-02T13:19:25;2.92;;;2.00;;
42904;SDS011;28550;51.228;4.528;2024-03-02T13:21:53;2.38;;;0.88;;
42904;SDS011;28550;51.228;4.528;2024-03-02T13:24:21;3.92;;;1.30;;
42904;SDS011;28550;51.228;4.528;2024-03-02T13:26:50;3.40;;;1.05;;
42904;SDS011;28550;51.228;4.528;2024-03-02T13:29:20;3.17;;;1.10;;
42904;SDS011;28550;51.228;4.528;2024-03-02T13:32:07;4.18;;;0.95;;
42904;SDS011;28550;51.228;4.528;2024-03-02T13:34:33;4.63;;;1.55;;
42904;SDS011;28550;51.228;4.528;2024-03-02T13:37:01;2.00;;;1.20;;
42904;SDS011;28550;51.228;4.528;2024-03-02T13:39:30;3.58;;;1.10;;
42904;SDS011;28550;51.228;4.528;2024-03-02T13:41:57;3.40;;;1.10;;
42904;SDS011;28550;51.228;4.528;2024-03-02T13:44:29;5.35;;;1.15;;
42904;SDS011;28550;51.228;4.528;2024-03-02T13:46:55;3.65;;;1.00;;
42904;SDS011;28550;51.228;4.528;2024-03-02T13:49:21;2.80;;;1.00;;
42904;SDS011;28550;51.228;4.528;2024-03-02T13:55:28;3.65;;;1.25;;
42904;SDS011;28550;51.228;4.528;2024-03-02T13:58:19;5.63;;;1.23;;
42904;SDS011;28550;51.228;4.528;2024-03-02T14:01:16;5.75;;;1.38;;
42904;SDS011;28550;51.228;4.528;2024-03-02T14:03:48;3.50;;;0.80;;
42904;SDS011;28550;51.228;4.528;2024-03-02T14:06:42;2.42;;;1.20;;
42904;SDS011;28550;51.228;4.528;2024-03-02T14:09:08;3.42;;;1.02;;
42904;SDS011;28550;51.228;4.528;2024-03-02T14:14:49;5.15;;;1.02;;
42904;SDS011;28550;51.228;4.528;2024-03-02T14:17:31;3.95;;;1.10;;
42904;SDS011;28550;51.228;4.528;2024-03-02T14:20:27;5.20;;;1.05;;
42904;SDS011;28550;51.228;4.528;2024-03-02T14:29:58;1.48;;;0.93;;
42904;SDS011;28550;51.228;4.528;2024-03-02T14:32:24;3.67;;;1.17;;
42904;SDS011;28550;51.228;4.528;2024-03-02T14:38:06;6.80;;;1.23;;
42904;SDS011;28550;51.228;4.528;2024-03-02T14:44:24;2.97;;;1.08;;
42904;SDS011;28550;51.228;4.528;2024-03-02T14:46:55;3.03;;;1.00;;
42904;SDS011;28550;51.228;4.528;2024-03-02T14:49:27;2.25;;;1.00;;
42904;SDS011;28550;51.228;4.528;2024-03-02T15:30:37;1.00;;;0.90;;
42904;SDS011;28550;51.228;4.528;2024-03-02T15:33:06;0.98;;;0.90;;
42904;SDS011;28550;51.228;4.528;2024-03-02T15:35:46;2.22;;;0.98;;
42904;SDS011;28550;51.228;4.528;2024-03-02T15:38:37;3.55;;;1.27;;
42904;SDS011;28550;51.228;4.528;2024-03-02T15:41:08;6.80;;;2.97;;
42904;SDS011;28550;51.228;4.528;2024-03-02T15:44:07;4.47;;;1.60;;
42904;SDS011;28550;51.228;4.528;2024-03-02T15:46:38;4.75;;;1.70;;
42904;SDS011;28550;51.228;4.528;2024-03-02T15:49:36;2.65;;;1.10;;
42904;SDS011;28550;51.228;4.528;2024-03-02T15:52:23;3.60;;;1.30;;
42904;SDS011;28550;51.228;4.528;2024-03-02T15:55:02;4.18;;;1.23;;
42904;SDS011;28550;51.228;4.528;2024-03-02T15:57:38;2.58;;;1.38;;
42904;SDS011;28550;51.228;4.528;2024-03-02T16:00:34;4.72;;;1.60;;
42904;SDS011;28550;51.228;4.528;2024-03-02T16:07:29;1.70;;;1.30;;
42904;SDS011;28550;51.228;4.528;2024-03-02T16:10:19;2.10;;;1.10;;
42904;SDS011;28550;51.228;4.528;2024-03-02T16:12:45;4.68;;;1.10;;
42904;SDS011;28550;51.228;4.528;2024-03-02T16:15:14;1.85;;;1.33;;
42904;SDS011;28550;51.228;4.528;2024-03-02T16:27:34;5.82;;;1.77;;
42904;SDS011;28550;51.228;4.528;2024-03-02T16:30:43;4.32;;;1.42;;
42904;SDS011;28550;51.228;4.528;2024-03-02T16:33:13;2.50;;;1.55;;
42904;SDS011;28550;51.228;4.528;2024-03-02T16:39:01;3.20;;;1.90;;
42904;SDS011;28550;51.228;4.528;2024-03-02T16:41:31;3.83;;;2.08;;
42904;SDS011;28550;51.228;4.528;2024-03-02T16:44:09;8.02;;;2.63;;
42904;SDS011;28550;51.228;4.528;2024-03-02T16:46:35;5.05;;;3.15;;
42904;SDS011;28550;51.228;4.528;2024-03-02T16:49:03;6.18;;;3.22;;
42904;SDS011;28550;51.228;4.528;2024-03-02T16:51:47;4.22;;;2.50;;
42904;SDS011;28550;51.228;4.528;2024-03-02T17:13:27;3.72;;;2.58;;
42904;SDS011;28550;51.228;4.528;2024-03-02T22:37:03;1.85;;;1.70;;
